Time;durP1;ratioP1;P1;durP2;ratioP2;P2;SDS_P1;SDS_P2;PMS_P1;PMS_P2;Temp;Humidity;BMP_temperature;BMP_pressure;BME280_temperature;BME280_humidity;BME280_pressure;Samples;Min_cycle;Max_cycle;Signal;HPM_P1;HPM_P2
2021/06/28 00:01:15;;;;;;;17.27;15.52;;;18.90;99.90;;;;;;5016593;28;25055;-65
2021/06/28 00:03:42;;;;;;;18.92;16.55;;;18.80;99.90;;;;;;5010299;28;25085;-66
2021/06/28 00:06:08;;;;;;;18.77;16.08;;;18.90;99.90;;;;;;5009888;28;25051;-63
2021/06/28 00:08:35;;;;;;;16.63;14.85;;;18.90;99.90;;;;;;5014255;28;25073;-64
2021/06/28 00:11:01;;;;;;;20.52;15.63;;;18.70;99.90;;;;;;5018213;28;25124;-65
2021/06/28 00:13:27;;;;;;;18.02;15.50;;;18.70;99.90;;;;;;5022483;28;25070;-65
2021/06/28 00:15:53;;;;;;;17.13;15.32;;;18.70;99.90;;;;;;5013946;28;25069;-66
2021/06/28 00:18:20;;;;;;;17.63;15.30;;;18.70;99.90;;;;;;5015480;28;25074;-64
2021/06/28 00:20:46;;;;;;;21.92;16.38;;;18.70;99.90;;;;;;5016961;28;25114;-66
2021/06/28 00:23:12;;;;;;;22.27;15.35;;;18.70;99.90;;;;;;5008396;28;25075;-65
2021/06/28 00:25:38;;;;;;;18.30;14.95;;;18.80;99.90;;;;;;5014916;28;25091;-65
2021/06/28 00:28:07;;;;;;;20.25;15.32;;;18.70;99.90;;;;;;5018675;28;25060;-66
2021/06/28 00:30:37;;;;;;;18.33;15.00;;;18.50;99.90;;;;;;5014312;28;25084;-65
2021/06/28 00:33:05;;;;;;;22.75;16.25;;;18.50;99.90;;;;;;5016005;28;25051;-65
2021/06/28 00:35:31;;;;;;;21.35;15.88;;;18.40;99.90;;;;;;5008402;28;25060;-64
2021/06/28 00:37:57;;;;;;;22.52;16.67;;;18.40;99.90;;;;;;5011973;28;25157;-64
2021/06/28 00:40:23;;;;;;;19.65;15.85;;;18.40;99.90;;;;;;5015377;28;25063;-66
2021/06/28 00:42:49;;;;;;;23.33;16.33;;;18.40;99.90;;;;;;5010583;28;25080;-65
2021/06/28 00:45:30;;;;;;;19.00;15.98;;;18.40;99.90;;;;;;5007224;28;25059;-65
2021/06/28 00:48:02;;;;;;;20.33;16.58;;;18.40;99.90;;;;;;5011631;28;25050;-65
2021/06/28 00:50:30;;;;;;;22.58;16.45;;;18.50;99.90;;;;;;5015611;28;25071;-64
2021/06/28 00:52:59;;;;;;;22.67;16.63;;;18.40;99.90;;;;;;5009582;28;25060;-65
2021/06/28 00:55:25;;;;;;;22.77;17.75;;;18.40;99.90;;;;;;5019016;28;25101;-64
2021/06/28 00:57:51;;;;;;;19.83;16.85;;;18.40;99.90;;;;;;5015877;28;25125;-65
2021/06/28 01:00:17;;;;;;;21.02;16.58;;;18.50;99.90;;;;;;5019588;28;25104;-66
2021/06/28 01:02:43;;;;;;;20.40;15.23;;;18.40;99.90;;;;;;5017528;28;25096;-65
2021/06/28 01:05:15;;;;;;;19.55;14.30;;;18.40;99.90;;;;;;5008714;28;25092;-65
2021/06/28 01:07:42;;;;;;;20.50;17.45;;;18.40;99.90;;;;;;5006277;28;25177;-65
2021/06/28 01:10:09;;;;;;;19.48;15.80;;;18.40;99.90;;;;;;5015855;28;25082;-65
2021/06/28 01:12:35;;;;;;;19.50;14.70;;;18.40;99.90;;;;;;5010357;28;25058;-65
2021/06/28 01:15:02;;;;;;;20.08;16.05;;;18.50;99.90;;;;;;5020482;28;25054;-65
2021/06/28 01:17:28;;;;;;;18.73;16.15;;;18.50;99.90;;;;;;5008865;28;25050;-65
2021/06/28 01:20:00;;;;;;;19.90;16.15;;;18.40;99.90;;;;;;5015510;28;25065;-64
2021/06/28 01:22:30;;;;;;;17.95;14.57;;;18.30;99.90;;;;;;5023280;28;25095;-66
2021/06/28 01:24:57;;;;;;;23.35;15.48;;;18.30;99.90;;;;;;5014165;28;25111;-64
2021/06/28 01:27:23;;;;;;;19.35;15.75;;;18.30;99.90;;;;;;5023150;28;25144;-65
2021/06/28 01:29:49;;;;;;;19.52;14.68;;;18.30;99.90;;;;;;5023180;28;25085;-65
2021/06/28 01:32:15;;;;;;;20.00;15.55;;;18.30;99.90;;;;;;5028203;28;25083;-65
2021/06/28 01:34:40;;;;;;;18.35;14.43;;;18.30;99.90;;;;;;5012076;28;25082;-65
2021/06/28 01:37:33;;;;;;;18.10;14.65;;;18.30;99.90;;;;;;5012281;28;25059;-65
2021/06/28 01:40:02;;;;;;;18.58;14.50;;;18.40;99.90;;;;;;5019808;28;25063;-66
2021/06/28 01:42:28;;;;;;;16.77;13.60;;;18.30;99.90;;;;;;5017710;28;25058;-66
2021/06/28 01:44:54;;;;;;;17.55;13.65;;;18.30;99.90;;;;;;5022316;28;25122;-65
2021/06/28 01:47:21;;;;;;;18.67;13.75;;;18.40;99.90;;;;;;5011652;28;25073;-66
2021/06/28 01:49:46;;;;;;;17.23;14.52;;;18.40;99.90;;;;;;5028410;28;25070;-66
2021/06/28 01:52:13;;;;;;;19.55;14.45;;;18.40;99.90;;;;;;5009798;28;25068;-65
2021/06/28 01:54:40;;;;;;;19.30;14.35;;;18.40;99.90;;;;;;5017840;28;25076;-64
2021/06/28 01:57:06;;;;;;;23.05;15.23;;;18.30;99.90;;;;;;5031149;28;25074;-65
2021/06/28 01:59:34;;;;;;;18.40;15.05;;;18.40;99.90;;;;;;5027905;28;25139;-64
2021/06/28 02:02:02;;;;;;;18.15;14.55;;;18.30;99.90;;;;;;5026277;28;25056;-65
2021/06/28 02:04:28;;;;;;;17.98;14.38;;;18.30;99.90;;;;;;5016440;28;25065;-65
2021/06/28 02:06:55;;;;;;;20.05;14.45;;;18.30;99.90;;;;;;5019000;28;25075;-65
2021/06/28 02:09:21;;;;;;;16.70;14.27;;;18.20;99.90;;;;;;5024657;28;25054;-65
2021/06/28 02:11:48;;;;;;;17.38;14.55;;;18.30;99.90;;;;;;5014197;28;24921;-64
2021/06/28 02:14:13;;;;;;;23.48;14.35;;;18.30;99.90;;;;;;5026058;28;25153;-65
2021/06/28 02:16:43;;;;;;;15.43;12.70;;;18.30;99.90;;;;;;5016846;28;25106;-65
2021/06/28 02:19:09;;;;;;;18.17;14.98;;;18.30;99.90;;;;;;5009819;28;25105;-65
2021/06/28 02:21:34;;;;;;;21.38;15.32;;;18.30;99.90;;;;;;5026754;28;25141;-65
2021/06/28 02:24:00;;;;;;;17.60;14.30;;;18.30;99.90;;;;;;5019920;28;25093;-65
2021/06/28 02:26:25;;;;;;;19.92;15.57;;;18.30;99.90;;;;;;5024152;28;25108;-65
2021/06/28 02:28:51;;;;;;;17.35;15.55;;;18.30;99.90;;;;;;5027879;28;25171;-66
2021/06/28 02:31:22;;;;;;;21.13;15.10;;;18.20;99.90;;;;;;5029357;28;25073;-65
2021/06/28 02:33:50;;;;;;;22.23;15.20;;;18.20;99.90;;;;;;5024760;28;25068;-65
2021/06/28 02:36:17;;;;;;;20.38;14.82;;;18.20;99.90;;;;;;5031320;28;25064;-65
2021/06/28 02:38:44;;;;;;;19.20;15.15;;;18.30;99.90;;;;;;5017272;28;25140;-64
2021/06/28 02:41:10;;;;;;;17.65;14.05;;;18.30;99.90;;;;;;5027931;28;25069;-65
2021/06/28 02:43:36;;;;;;;18.83;13.75;;;18.30;99.90;;;;;;5022589;28;25057;-65
2021/06/28 02:46:03;;;;;;;15.43;13.75;;;18.30;99.90;;;;;;5014850;28;25066;-65
2021/06/28 02:48:28;;;;;;;16.20;14.38;;;18.40;99.90;;;;;;5019041;28;25069;-65
2021/06/28 02:50:54;;;;;;;18.77;13.55;;;18.40;99.90;;;;;;5023654;28;25068;-65
2021/06/28 02:53:21;;;;;;;16.73;14.27;;;18.50;99.90;;;;;;5022481;28;25084;-65
2021/06/28 02:55:48;;;;;;;15.40;13.25;;;18.60;99.90;;;;;;5020553;28;25088;-66
2021/06/28 02:58:15;;;;;;;17.48;13.32;;;18.50;99.90;;;;;;5019262;28;25076;-66
2021/06/28 03:00:40;;;;;;;17.85;14.00;;;18.50;99.90;;;;;;5012594;28;25049;-66
2021/06/28 03:03:07;;;;;;;16.67;13.43;;;18.50;99.90;;;;;;5020703;28;25068;-65
2021/06/28 03:05:33;;;;;;;16.55;13.90;;;18.40;99.90;;;;;;5009300;28;25166;-65
2021/06/28 03:07:58;;;;;;;22.25;15.52;;;18.40;99.90;;;;;;5020224;28;25075;-65
2021/06/28 03:10:24;;;;;;;18.65;14.27;;;18.20;99.90;;;;;;5011536;28;25143;-65
2021/06/28 03:12:50;;;;;;;24.02;14.85;;;18.20;99.90;;;;;;5008546;28;25072;-66
2021/06/28 03:15:18;;;;;;;21.13;14.75;;;18.20;99.90;;;;;;5016601;28;25068;-66
2021/06/28 03:17:44;;;;;;;18.02;15.55;;;18.10;99.90;;;;;;5024807;28;25066;-66
2021/06/28 03:20:12;;;;;;;16.40;14.27;;;18.10;99.90;;;;;;5019294;28;25049;-66
2021/06/28 03:25:15;;;;;;;22.88;16.27;;;18.10;99.90;;;;;;5005311;28;25108;-64
2021/06/28 03:27:42;;;;;;;18.30;14.50;;;18.10;99.90;;;;;;5008171;28;25150;-64
2021/06/28 03:30:12;;;;;;;16.17;13.98;;;18.20;99.90;;;;;;5005102;28;25073;-65
2021/06/28 03:32:37;;;;;;;20.15;14.55;;;18.20;99.90;;;;;;5014372;28;25154;-64
2021/06/28 03:35:04;;;;;;;18.58;14.95;;;18.20;99.90;;;;;;5008077;28;25100;-64
2021/06/28 03:37:29;;;;;;;22.02;15.85;;;18.30;99.90;;;;;;5007552;28;25118;-65
2021/06/28 03:39:55;;;;;;;14.68;12.98;;;18.40;99.90;;;;;;5007829;28;25114;-63
2021/06/28 03:42:21;;;;;;;17.58;12.68;;;18.50;99.90;;;;;;5008603;28;25166;-64
2021/06/28 03:44:46;;;;;;;22.55;15.25;;;18.60;99.90;;;;;;5013171;28;25062;-64
2021/06/28 03:47:12;;;;;;;18.60;14.27;;;18.50;99.90;;;;;;5007694;28;25066;-64
2021/06/28 03:49:37;;;;;;;23.40;13.98;;;18.50;99.90;;;;;;5008051;28;25065;-64
2021/06/28 03:52:03;;;;;;;19.00;14.27;;;18.50;99.90;;;;;;5006516;28;25141;-64
2021/06/28 03:54:29;;;;;;;17.95;15.25;;;18.50;99.90;;;;;;5005838;28;25118;-64
2021/06/28 03:56:55;;;;;;;21.85;13.45;;;18.50;99.90;;;;;;5006786;28;25106;-64
2021/06/28 03:59:20;;;;;;;19.55;14.50;;;18.50;99.90;;;;;;4995762;28;25059;-65
2021/06/28 04:01:46;;;;;;;17.08;13.43;;;18.60;99.90;;;;;;5009093;28;25064;-64
2021/06/28 04:04:12;;;;;;;16.95;13.70;;;18.60;99.90;;;;;;5005224;28;25112;-64
2021/06/28 04:06:38;;;;;;;16.13;13.15;;;18.60;99.90;;;;;;5007090;28;25141;-63
2021/06/28 04:09:04;;;;;;;17.98;14.52;;;18.50;99.90;;;;;;5014582;28;25064;-64
2021/06/28 04:11:30;;;;;;;18.80;15.50;;;18.40;99.90;;;;;;5024884;28;25062;-64
2021/06/28 04:13:56;;;;;;;17.33;15.10;;;18.30;99.90;;;;;;5023028;28;25068;-65
2021/06/28 04:16:22;;;;;;;20.42;15.80;;;18.40;99.90;;;;;;5016682;28;25077;-64
2021/06/28 04:18:48;;;;;;;22.50;16.00;;;18.50;99.90;;;;;;5013092;28;25145;-64
2021/06/28 04:21:13;;;;;;;23.73;15.85;;;18.40;99.90;;;;;;5005490;28;25099;-64
2021/06/28 04:23:39;;;;;;;21.98;16.17;;;18.40;99.90;;;;;;5006263;28;25073;-64
2021/06/28 04:26:05;;;;;;;15.77;13.85;;;18.40;99.90;;;;;;5005352;28;25064;-63
2021/06/28 04:28:30;;;;;;;18.38;15.15;;;18.60;99.90;;;;;;4997775;28;25071;-63
2021/06/28 04:30:57;;;;;;;18.38;15.05;;;18.50;99.90;;;;;;4995718;28;25069;-64
2021/06/28 04:33:23;;;;;;;18.65;13.80;;;18.60;99.90;;;;;;5002895;28;25050;-64
2021/06/28 04:35:48;;;;;;;20.58;16.05;;;18.60;99.90;;;;;;4992214;28;25131;-63
2021/06/28 04:38:14;;;;;;;18.48;14.02;;;18.60;99.90;;;;;;5001184;28;25092;-65
2021/06/28 04:40:39;;;;;;;23.13;15.05;;;18.60;99.90;;;;;;5001111;28;25075;-65
2021/06/28 04:43:05;;;;;;;15.60;13.35;;;18.60;99.90;;;;;;4996621;28;25070;-64
2021/06/28 04:45:30;;;;;;;17.00;13.65;;;18.60;99.90;;;;;;5005233;28;25063;-63
2021/06/28 04:47:58;;;;;;;17.55;13.13;;;18.70;99.90;;;;;;5005338;28;25113;-63
2021/06/28 04:50:25;;;;;;;17.98;13.63;;;18.70;99.90;;;;;;5004250;28;25070;-64
2021/06/28 04:52:52;;;;;;;19.80;15.05;;;18.70;99.90;;;;;;4997276;28;25064;-65
2021/06/28 04:55:18;;;;;;;18.27;14.45;;;18.70;99.90;;;;;;5000320;28;25130;-64
2021/06/28 04:57:45;;;;;;;15.07;13.38;;;18.70;99.90;;;;;;4998107;28;25112;-64
2021/06/28 05:00:13;;;;;;;17.75;14.13;;;18.70;99.90;;;;;;5002388;28;25073;-64
2021/06/28 05:02:39;;;;;;;16.55;14.18;;;18.80;99.90;;;;;;5003624;28;25079;-64
2021/06/28 05:05:06;;;;;;;18.83;14.73;;;18.80;99.90;;;;;;5001517;28;25068;-65
2021/06/28 05:07:31;;;;;;;20.13;13.98;;;18.90;99.90;;;;;;5005016;28;25055;-63
2021/06/28 05:09:57;;;;;;;16.65;14.10;;;18.90;99.90;;;;;;5007496;28;25075;-65
2021/06/28 05:12:23;;;;;;;15.73;13.27;;;18.90;99.90;;;;;;5005070;28;25074;-64
2021/06/28 05:14:48;;;;;;;25.13;14.27;;;18.90;99.90;;;;;;5003253;28;25074;-65
2021/06/28 05:17:14;;;;;;;16.60;12.35;;;18.90;99.90;;;;;;5020474;28;25158;-65
2021/06/28 05:19:39;;;;;;;16.70;13.63;;;19.00;99.90;;;;;;5008678;28;25068;-63
2021/06/28 05:22:05;;;;;;;17.10;13.63;;;19.10;99.90;;;;;;5002097;28;25093;-64
2021/06/28 05:24:32;;;;;;;19.85;15.00;;;19.20;99.90;;;;;;5010479;28;25102;-63
2021/06/28 05:26:57;;;;;;;18.50;13.18;;;19.20;99.90;;;;;;5009701;28;25114;-64
2021/06/28 05:29:23;;;;;;;15.68;12.20;;;19.20;99.90;;;;;;5010472;28;25169;-64
2021/06/28 05:31:49;;;;;;;15.98;12.88;;;19.10;99.90;;;;;;5009923;28;25070;-64
2021/06/28 05:34:15;;;;;;;20.42;14.30;;;19.20;99.90;;;;;;5012655;28;25065;-64
2021/06/28 05:36:40;;;;;;;17.80;13.43;;;19.40;99.90;;;;;;5012403;28;25071;-64
2021/06/28 05:39:06;;;;;;;18.15;14.18;;;19.50;99.90;;;;;;5010595;28;25077;-64
2021/06/28 05:41:32;;;;;;;17.92;14.07;;;19.50;99.90;;;;;;5008226;28;25061;-64
2021/06/28 05:43:58;;;;;;;20.00;14.40;;;19.50;99.90;;;;;;5009158;28;25050;-64
2021/06/28 05:46:23;;;;;;;19.80;15.02;;;19.50;99.90;;;;;;5006647;28;25084;-64
2021/06/28 05:48:49;;;;;;;22.73;15.05;;;19.50;99.90;;;;;;4999547;28;25078;-64
2021/06/28 05:51:18;;;;;;;19.98;14.93;;;19.40;99.90;;;;;;4999954;28;25133;-64
2021/06/28 05:53:44;;;;;;;17.60;13.95;;;19.50;99.90;;;;;;5006216;28;25075;-64
2021/06/28 05:56:10;;;;;;;21.42;13.63;;;19.60;99.90;;;;;;5003751;28;25065;-64
2021/06/28 05:58:36;;;;;;;17.52;13.90;;;19.70;99.90;;;;;;5004357;28;25137;-64
2021/06/28 06:01:02;;;;;;;19.38;14.25;;;19.90;99.90;;;;;;5005669;28;25057;-64
2021/06/28 06:03:28;;;;;;;22.20;14.40;;;20.00;99.90;;;;;;5000303;28;25092;-63
2021/06/28 06:05:54;;;;;;;21.45;14.93;;;20.20;99.90;;;;;;4997310;28;25084;-63
2021/06/28 06:08:24;;;;;;;21.70;15.65;;;20.50;99.90;;;;;;5005323;28;25053;-64
2021/06/28 06:10:59;;;;;;;22.75;16.40;;;20.70;99.90;;;;;;5000009;28;25132;-65
2021/06/28 06:13:25;;;;;;;25.08;16.48;;;20.80;99.90;;;;;;5002127;28;25064;-65
2021/06/28 06:15:51;;;;;;;21.77;15.88;;;20.80;99.90;;;;;;4997693;28;25107;-64
2021/06/28 06:18:17;;;;;;;20.73;15.27;;;20.80;99.90;;;;;;5008144;28;25179;-64
2021/06/28 06:20:43;;;;;;;21.63;15.85;;;21.10;99.90;;;;;;5007223;28;25099;-64
2021/06/28 06:23:10;;;;;;;21.23;15.93;;;21.20;99.90;;;;;;4997557;28;25064;-64
2021/06/28 06:25:37;;;;;;;28.30;18.55;;;21.20;99.90;;;;;;5002070;28;25101;-64
2021/06/28 06:28:03;;;;;;;26.38;17.65;;;21.00;99.90;;;;;;4999445;28;25097;-65
2021/06/28 06:30:29;;;;;;;25.60;16.27;;;20.90;99.90;;;;;;5000118;28;25152;-64
2021/06/28 06:32:54;;;;;;;21.42;16.70;;;21.20;99.90;;;;;;5001817;28;25084;-64
2021/06/28 06:35:21;;;;;;;22.15;16.10;;;21.40;99.90;;;;;;5011956;28;25118;-63
2021/06/28 06:37:53;;;;;;;20.45;15.85;;;21.30;99.90;;;;;;5014638;28;25101;-64
2021/06/28 06:40:20;;;;;;;22.95;16.75;;;21.00;99.90;;;;;;5005392;28;25092;-64
2021/06/28 06:42:47;;;;;;;24.88;17.27;;;20.70;99.90;;;;;;4995128;28;25134;-64
2021/06/28 06:45:14;;;;;;;23.60;16.42;;;20.60;99.90;;;;;;5005730;28;25065;-65
2021/06/28 06:47:41;;;;;;;23.05;16.95;;;20.80;99.90;;;;;;5004004;28;25061;-65
2021/06/28 06:50:07;;;;;;;24.13;18.40;;;21.00;99.90;;;;;;5003303;28;25069;-64
2021/06/28 06:52:33;;;;;;;24.27;17.33;;;21.10;99.90;;;;;;5008288;28;25083;-65
2021/06/28 06:54:58;;;;;;;21.10;15.32;;;21.60;99.90;;;;;;5008486;28;25091;-65
2021/06/28 06:57:24;;;;;;;22.30;17.10;;;22.00;99.90;;;;;;5006459;28;25093;-66
2021/06/28 06:59:49;;;;;;;20.45;13.82;;;22.30;99.90;;;;;;5001324;28;25124;-65
2021/06/28 07:02:15;;;;;;;20.23;14.63;;;22.50;99.90;;;;;;4999920;28;25077;-64
2021/06/28 07:04:40;;;;;;;21.98;15.68;;;22.60;99.90;;;;;;4998922;28;25068;-64
2021/06/28 07:07:06;;;;;;;23.60;15.75;;;22.50;99.90;;;;;;5000836;28;25152;-64
2021/06/28 07:09:32;;;;;;;23.10;16.05;;;22.40;99.90;;;;;;5002947;28;25094;-65
2021/06/28 07:11:57;;;;;;;23.27;16.65;;;22.40;99.90;;;;;;5006639;28;25092;-65
2021/06/28 07:14:24;;;;;;;24.42;15.98;;;22.00;99.90;;;;;;4997884;28;25073;-64
2021/06/28 07:16:50;;;;;;;23.40;16.90;;;21.90;99.90;;;;;;5000273;28;25081;-66
2021/06/28 07:19:19;;;;;;;23.08;16.48;;;22.10;99.90;;;;;;5002514;28;25058;-65
2021/06/28 07:21:47;;;;;;;21.90;16.02;;;21.90;99.90;;;;;;4998223;28;25076;-64
2021/06/28 07:24:13;;;;;;;19.90;15.82;;;22.00;99.90;;;;;;4993562;28;25077;-65
2021/06/28 07:26:39;;;;;;;22.92;15.75;;;21.60;99.90;;;;;;4999147;28;25071;-65
2021/06/28 07:29:04;;;;;;;19.20;15.23;;;21.50;99.90;;;;;;4999883;28;25066;-65
2021/06/28 07:31:30;;;;;;;23.50;16.02;;;21.60;99.90;;;;;;5002705;28;25083;-64
2021/06/28 07:33:56;;;;;;;22.30;16.15;;;21.50;99.90;;;;;;5001572;28;25081;-65
2021/06/28 07:36:22;;;;;;;22.70;16.75;;;21.40;99.90;;;;;;4998486;28;25164;-64
2021/06/28 07:38:48;;;;;;;24.90;17.58;;;21.70;99.90;;;;;;5001186;28;25069;-65
2021/06/28 07:41:13;;;;;;;20.30;15.18;;;21.80;99.90;;;;;;5004833;28;25055;-66
2021/06/28 07:43:39;;;;;;;23.02;17.33;;;21.90;99.90;;;;;;5005704;28;25066;-66
2021/06/28 07:46:05;;;;;;;19.48;14.98;;;21.70;99.90;;;;;;5005073;28;25094;-65
2021/06/28 07:48:31;;;;;;;19.27;14.93;;;21.70;99.90;;;;;;5006302;28;25091;-66
2021/06/28 07:50:57;;;;;;;18.85;13.70;;;21.70;99.90;;;;;;5005658;28;25074;-65
2021/06/28 07:53:22;;;;;;;22.27;14.77;;;21.90;99.90;;;;;;5006583;28;25122;-66
2021/06/28 07:55:48;;;;;;;20.98;13.95;;;22.00;99.90;;;;;;5007506;28;25073;-65
2021/06/28 07:58:14;;;;;;;18.35;11.82;;;22.00;99.90;;;;;;5008456;28;25171;-64
2021/06/28 08:00:40;;;;;;;16.90;12.52;;;22.10;99.90;;;;;;5025862;28;25067;-65
2021/06/28 08:03:07;;;;;;;19.75;14.02;;;22.10;99.90;;;;;;5031711;28;25073;-65
2021/06/28 08:05:34;;;;;;;19.05;14.38;;;22.00;99.90;;;;;;5026662;28;25069;-66
2021/06/28 08:07:59;;;;;;;19.92;15.10;;;22.20;99.90;;;;;;5020216;28;25104;-67
2021/06/28 08:10:25;;;;;;;20.92;14.10;;;22.50;99.90;;;;;;5008499;28;25090;-64
2021/06/28 08:12:52;;;;;;;18.02;14.30;;;22.60;99.90;;;;;;5007558;28;25104;-64
2021/06/28 08:15:19;;;;;;;17.65;12.90;;;22.90;99.90;;;;;;5007909;28;25067;-64
2021/06/28 08:17:49;;;;;;;17.05;13.20;;;23.00;99.90;;;;;;5006448;28;25134;-64
2021/06/28 08:20:17;;;;;;;15.98;13.48;;;23.00;99.90;;;;;;5007083;28;25062;-64
2021/06/28 08:22:43;;;;;;;19.60;14.18;;;23.10;99.90;;;;;;5005043;28;25084;-64
2021/06/28 08:25:11;;;;;;;19.02;13.68;;;22.80;99.90;;;;;;5002758;28;25117;-63
2021/06/28 08:27:37;;;;;;;24.10;13.98;;;22.70;99.90;;;;;;5005901;28;25103;-64
2021/06/28 08:30:05;;;;;;;20.60;15.10;;;22.70;99.90;;;;;;5002250;28;25083;-65
2021/06/28 08:32:31;;;;;;;19.27;13.63;;;22.70;99.90;;;;;;5004253;28;25058;-63
2021/06/28 08:34:59;;;;;;;17.10;12.85;;;22.90;99.90;;;;;;5004391;28;25056;-66
2021/06/28 08:37:24;;;;;;;18.50;12.50;;;23.10;99.90;;;;;;5002817;28;25065;-65
2021/06/28 08:39:50;;;;;;;19.92;13.35;;;23.10;99.90;;;;;;5005359;28;25076;-65
2021/06/28 08:42:17;;;;;;;17.05;14.10;;;23.00;99.90;;;;;;5005673;28;25147;-65
2021/06/28 08:44:44;;;;;;;16.58;12.32;;;22.90;99.90;;;;;;5005528;28;25072;-64
2021/06/28 08:47:11;;;;;;;19.95;14.63;;;23.10;99.90;;;;;;5005453;28;25080;-66
2021/06/28 08:49:39;;;;;;;20.60;14.60;;;23.00;99.90;;;;;;5006204;28;25122;-64
2021/06/28 08:52:06;;;;;;;19.42;13.70;;;22.70;99.90;;;;;;5005916;28;25088;-65
2021/06/28 08:54:32;;;;;;;21.65;15.13;;;22.90;99.90;;;;;;5005137;28;25066;-65
2021/06/28 08:56:58;;;;;;;15.40;13.38;;;22.80;99.90;;;;;;5004907;28;25060;-65
2021/06/28 08:59:25;;;;;;;20.05;14.50;;;22.90;99.90;;;;;;5006210;28;25088;-64
2021/06/28 09:01:51;;;;;;;17.27;13.07;;;22.90;99.90;;;;;;4999240;28;25059;-66
2021/06/28 09:04:17;;;;;;;18.85;14.48;;;23.00;99.90;;;;;;5004741;28;25066;-65
2021/06/28 09:06:43;;;;;;;21.08;12.93;;;23.00;99.90;;;;;;5006378;28;25125;-64
2021/06/28 09:09:11;;;;;;;18.83;13.35;;;23.20;99.90;;;;;;5001894;28;25065;-65
2021/06/28 09:11:51;;;;;;;16.05;12.38;;;23.20;99.90;;;;;;5003149;28;25068;-64
2021/06/28 09:14:24;;;;;;;16.92;13.02;;;23.20;99.90;;;;;;5002544;28;25056;-66
2021/06/28 09:16:50;;;;;;;16.55;12.73;;;23.10;99.90;;;;;;5003784;28;25080;-66
2021/06/28 09:19:18;;;;;;;18.73;14.75;;;23.30;99.90;;;;;;5005741;28;25085;-65
2021/06/28 09:21:45;;;;;;;17.55;11.35;;;23.20;99.90;;;;;;5006798;28;25102;-65
2021/06/28 09:24:30;;;;;;;13.75;10.98;;;23.20;99.90;;;;;;4992823;22;1083770;-67
2021/06/28 09:27:12;;;;;;;14.88;10.65;;;23.30;99.90;;;;;;5037419;28;25131;-66
2021/06/28 09:29:41;;;;;;;12.18;10.13;;;23.40;99.90;;;;;;5043249;28;25175;-66
2021/06/28 09:32:09;;;;;;;13.68;9.43;;;23.40;99.90;;;;;;5044822;28;25064;-66
2021/06/28 09:34:35;;;;;;;16.27;11.25;;;23.30;99.90;;;;;;5033031;28;25067;-67
2021/06/28 09:37:00;;;;;;;15.63;12.32;;;23.40;99.90;;;;;;5022004;28;25049;-66
2021/06/28 09:39:29;;;;;;;16.63;10.68;;;23.30;99.90;;;;;;5019125;28;25140;-66
2021/06/28 09:42:16;;;;;;;13.20;9.95;;;23.20;99.90;;;;;;5027622;28;25054;-67
2021/06/28 09:44:57;;;;;;;14.52;11.02;;;23.20;99.90;;;;;;5032519;28;25101;-67
2021/06/28 09:47:25;;;;;;;15.37;11.70;;;23.20;99.90;;;;;;5023579;28;25070;-67
2021/06/28 09:50:13;;;;;;;14.02;11.13;;;23.10;99.90;;;;;;5024111;28;25059;-66
2021/06/28 09:52:44;;;;;;;16.73;11.50;;;23.10;99.90;;;;;;5023250;28;25144;-65
2021/06/28 09:55:14;;;;;;;15.85;12.27;;;23.20;99.90;;;;;;5027769;28;25048;-67
2021/06/28 09:58:09;;;;;;;19.58;13.80;;;23.20;99.90;;;;;;5023005;28;25130;-66
2021/06/28 10:00:46;;;;;;;15.32;12.50;;;23.10;99.90;;;;;;5026896;28;25079;-67
2021/06/28 10:03:27;;;;;;;17.83;13.13;;;23.10;99.90;;;;;;5028384;28;25061;-67
2021/06/28 10:06:41;;;;;;;20.02;13.60;;;23.10;99.90;;;;;;5028387;28;25132;-67
2021/06/28 10:09:05;;;;;;;17.90;12.90;;;23.00;99.90;;;;;;5022094;28;25087;-66
2021/06/28 10:11:30;;;;;;;17.42;13.75;;;23.10;99.90;;;;;;5027431;28;25056;-66
2021/06/28 10:14:06;;;;;;;18.38;13.52;;;23.20;99.90;;;;;;5029316;28;25130;-65
2021/06/28 10:16:34;;;;;;;20.02;13.85;;;23.20;99.90;;;;;;5026306;28;25117;-65
2021/06/28 10:19:02;;;;;;;22.75;15.05;;;23.20;99.90;;;;;;5028309;28;25144;-66
2021/06/28 10:21:29;;;;;;;17.58;14.00;;;23.20;99.90;;;;;;5026360;28;25087;-66
2021/06/28 10:23:55;;;;;;;18.98;14.30;;;23.20;99.90;;;;;;5028870;28;25102;-66
2021/06/28 10:26:21;;;;;;;21.08;15.02;;;23.20;99.90;;;;;;5027228;28;25107;-67
2021/06/28 10:28:47;;;;;;;21.13;14.75;;;23.20;99.90;;;;;;5028659;28;25059;-66
2021/06/28 10:31:13;;;;;;;22.80;15.98;;;23.30;99.90;;;;;;5027706;28;25089;-66
2021/06/28 10:33:41;;;;;;;22.35;15.55;;;23.30;99.90;;;;;;5022745;28;25096;-66
2021/06/28 10:36:12;;;;;;;22.45;15.45;;;23.40;99.90;;;;;;5026945;28;25104;-66
2021/06/28 10:38:43;;;;;;;20.52;15.63;;;23.40;99.90;;;;;;5027299;28;25071;-67
2021/06/28 10:41:09;;;;;;;23.02;17.20;;;23.40;99.90;;;;;;5026612;28;25072;-67
2021/06/28 10:43:36;;;;;;;23.52;16.55;;;23.10;99.90;;;;;;5028628;28;25071;-67
2021/06/28 10:46:28;;;;;;;23.88;16.52;;;23.00;99.90;;;;;;5027932;28;25080;-67
2021/06/28 10:48:53;;;;;;;23.03;16.00;;;22.90;99.90;;;;;;5026676;28;25081;-66
2021/06/28 10:51:21;;;;;;;25.52;16.65;;;23.00;99.90;;;;;;5028459;28;25154;-66
2021/06/28 10:53:56;;;;;;;21.30;15.30;;;23.00;99.90;;;;;;5026458;28;25159;-66
2021/06/28 10:56:31;;;;;;;20.02;15.77;;;23.00;99.90;;;;;;5028098;28;25070;-66
2021/06/28 10:59:01;;;;;;;21.65;16.27;;;23.10;99.90;;;;;;5024717;28;25059;-66
2021/06/28 11:01:59;;;;;;;22.67;16.25;;;23.10;99.90;;;;;;5027777;28;25108;-67
2021/06/28 11:04:30;;;;;;;21.58;15.48;;;23.10;99.90;;;;;;5011322;28;25080;-66
2021/06/28 11:06:59;;;;;;;21.70;15.77;;;23.20;99.90;;;;;;5028257;28;25140;-66
2021/06/28 11:09:38;;;;;;;23.80;15.35;;;23.10;99.90;;;;;;5024776;28;25078;-66
2021/06/28 11:12:25;;;;;;;20.75;15.75;;;23.10;99.90;;;;;;5029439;28;25088;-66
2021/06/28 11:15:09;;;;;;;24.73;17.73;;;23.20;99.90;;;;;;5024732;28;25073;-65
2021/06/28 11:17:50;;;;;;;27.75;18.38;;;23.20;99.90;;;;;;5026536;28;25186;-66
2021/06/28 11:20:40;;;;;;;23.42;17.80;;;23.10;99.90;;;;;;5026189;28;25134;-67
2021/06/28 11:23:16;;;;;;;24.55;17.52;;;23.00;99.90;;;;;;5027811;28;25119;-66
2021/06/28 11:25:45;;;;;;;24.65;18.23;;;23.00;99.90;;;;;;5025458;28;25082;-65
2021/06/28 11:28:38;;;;;;;20.70;16.83;;;23.10;99.90;;;;;;5027462;28;25090;-66
2021/06/28 11:31:13;;;;;;;29.60;18.35;;;23.20;99.90;;;;;;5030053;28;25075;-67
2021/06/28 11:33:43;;;;;;;26.60;16.92;;;23.40;99.90;;;;;;5031893;28;25070;-66
2021/06/28 11:36:30;;;;;;;25.65;17.30;;;23.50;99.90;;;;;;5026534;28;25126;-65
2021/06/28 11:38:59;;;;;;;24.10;16.83;;;23.30;99.90;;;;;;5014561;28;25059;-66
2021/06/28 11:41:27;;;;;;;23.45;16.58;;;23.30;99.90;;;;;;5014691;28;25058;-66
2021/06/28 11:44:03;;;;;;;23.20;17.15;;;23.40;99.90;;;;;;5024426;28;25079;-65
2021/06/28 11:46:33;;;;;;;22.70;16.60;;;23.40;99.90;;;;;;5026901;28;25060;-67
2021/06/28 11:49:06;;;;;;;25.85;16.25;;;23.30;99.90;;;;;;5024756;28;25067;-68
2021/06/28 11:51:36;;;;;;;21.92;16.52;;;23.20;99.90;;;;;;5027731;28;25074;-66
2021/06/28 11:54:05;;;;;;;27.20;16.58;;;23.30;99.90;;;;;;5025769;28;25092;-66
2021/06/28 11:56:43;;;;;;;22.40;16.95;;;23.20;99.90;;;;;;5026351;28;25063;-66
2021/06/28 11:59:14;;;;;;;22.25;16.98;;;23.10;99.90;;;;;;5025336;28;25065;-66
2021/06/28 12:01:52;;;;;;;24.15;15.88;;;23.00;99.90;;;;;;5025531;28;25065;-65
2021/06/28 12:04:20;;;;;;;24.95;15.93;;;23.00;99.90;;;;;;5024899;28;25074;-66
2021/06/28 12:06:46;;;;;;;24.50;16.55;;;22.80;99.90;;;;;;5027920;28;25149;-65
2021/06/28 12:09:20;;;;;;;25.67;16.55;;;22.60;99.90;;;;;;5025236;28;25071;-67
2021/06/28 12:11:52;;;;;;;23.20;16.33;;;22.40;99.90;;;;;;5027074;28;25099;-65
2021/06/28 12:14:48;;;;;;;23.33;17.55;;;22.30;99.90;;;;;;5024357;28;25137;-67
2021/06/28 12:17:16;;;;;;;21.98;16.75;;;22.40;99.90;;;;;;5016425;28;25142;-66
2021/06/28 12:19:47;;;;;;;27.05;18.27;;;22.50;99.90;;;;;;5027392;28;25135;-66
2021/06/28 12:22:30;;;;;;;26.90;16.83;;;22.70;99.90;;;;;;5018287;28;25089;-66
2021/06/28 12:25:03;;;;;;;19.33;15.10;;;23.00;99.90;;;;;;5015918;28;25160;-66
2021/06/28 12:27:34;;;;;;;23.50;15.82;;;23.20;99.90;;;;;;5027652;28;25103;-66
2021/06/28 12:30:01;;;;;;;19.70;15.38;;;23.30;99.90;;;;;;5023646;28;25133;-66
2021/06/28 12:32:29;;;;;;;20.55;14.52;;;23.30;99.90;;;;;;5027962;28;25106;-66
2021/06/28 12:34:59;;;;;;;19.70;13.90;;;23.30;99.90;;;;;;5012643;28;25053;-67
2021/06/28 12:37:30;;;;;;;26.60;16.00;;;23.60;99.90;;;;;;5026457;28;25068;-67